Time;durP1;ratioP1;P1;durP2;ratioP2;P2;SDS_P1;SDS_P2;PMS_P1;PMS_P2;Temp;Humidity;BMP_temperature;BMP_pressure;BME280_temperature;BME280_humidity;BME280_pressure;Samples;Min_cycle;Max_cycle;Signal;HPM_P1;HPM_P2
2023/04/10 00:00:02;;;;;;;;;;;5.40;1.00;;;;;;5094335;28;19929;-72
2023/04/10 00:02:28;;;;;;;;;;;5.40;1.00;;;;;;5093900;28;19904;-72
2023/04/10 00:04:54;;;;;;;;;;;5.30;1.00;;;;;;5082843;28;19977;-72
2023/04/10 00:07:20;;;;;;;;;;;5.30;1.00;;;;;;5084956;28;20024;-72
2023/04/10 00:09:45;;;;;;;;;;;5.30;1.00;;;;;;5093775;28;19908;-72
2023/04/10 00:12:11;;;;;;;;;;;5.30;1.00;;;;;;5092047;28;19918;-72
2023/04/10 00:14:37;;;;;;;;;;;5.30;1.00;;;;;;5093376;28;20352;-72
2023/04/10 00:17:02;;;;;;;;;;;5.30;1.00;;;;;;5086448;28;19919;-72
2023/04/10 00:19:28;;;;;;;;;;;5.20;1.00;;;;;;5073397;28;19949;-72
2023/04/10 00:21:54;;;;;;;;;;;5.20;1.00;;;;;;5073513;28;20011;-72
2023/04/10 00:24:20;;;;;;;;;;;5.20;1.00;;;;;;5074097;28;19904;-72
2023/04/10 00:26:45;;;;;;;;;;;5.10;1.00;;;;;;5093583;28;19926;-72
2023/04/10 00:32:14;;;;;;;;;;;5.10;1.00;;;;;;5093896;28;20321;-76
2023/04/10 00:35:05;;;;;;;;;;;5.10;1.00;;;;;;5080484;28;19908;-77
2023/04/10 00:37:36;;;;;;;;;;;5.00;1.00;;;;;;5094076;28;20332;-77
2023/04/10 00:40:18;;;;;;;;;;;4.90;1.00;;;;;;5078981;28;19912;-77
2023/04/10 00:42:47;;;;;;;;;;;4.80;1.00;;;;;;5073670;28;19959;-77
2023/04/10 00:45:13;;;;;;;;;;;4.80;1.00;;;;;;5081037;28;19951;-72
2023/04/10 00:47:39;;;;;;;;;;;4.70;1.00;;;;;;5097006;28;19904;-72
2023/04/10 00:50:05;;;;;;;;;;;4.70;1.00;;;;;;5097248;28;19994;-72
2023/04/10 00:52:31;;;;;;;;;;;4.70;1.00;;;;;;5097135;28;19904;-72
2023/04/10 00:54:57;;;;;;;;;;;4.60;1.00;;;;;;5092148;28;19908;-72
2023/04/10 00:57:23;;;;;;;;;;;4.60;1.00;;;;;;5076831;28;19911;-72
2023/04/10 01:00:24;;;;;;;;;;;4.60;1.00;;;;;;5077265;28;19915;-77
2023/04/10 01:03:00;;;;;;;;;;;4.50;1.00;;;;;;5076954;28;19911;-77
2023/04/10 01:05:32;;;;;;;;;;;4.50;1.00;;;;;;5085454;28;19909;-77
2023/04/10 01:08:17;;;;;;;;;;;4.50;1.00;;;;;;5077374;28;19905;-77
2023/04/10 01:13:54;;;;;;;;;;;4.50;1.00;;;;;;5076633;28;19961;-77
2023/04/10 01:16:26;;;;;;;;;;;4.40;1.00;;;;;;5058982;28;20340;-72
2023/04/10 01:18:56;;;;;;;;;;;4.40;1.00;;;;;;5076365;28;19908;-72
2023/04/10 01:21:22;;;;;;;;;;;4.40;1.00;;;;;;5076425;28;20337;-72
2023/04/10 01:23:53;;;;;;;;;;;4.40;1.00;;;;;;5076145;28;19933;-72
2023/04/10 01:26:28;;;;;;;;;;;4.30;1.00;;;;;;5076238;28;19915;-72
2023/04/10 01:29:03;;;;;;;;;;;4.30;1.00;;;;;;5076167;28;20386;-72
2023/04/10 01:31:49;;;;;;;;;;;4.30;1.00;;;;;;5076714;28;19911;-77
2023/04/10 01:34:25;;;;;;;;;;;4.30;1.00;;;;;;5076514;28;19904;-77
2023/04/10 01:37:12;;;;;;;;;;;4.30;1.00;;;;;;5076102;28;19904;-77
2023/04/10 01:42:47;;;;;;;;;;;4.20;1.00;;;;;;5076224;28;19919;-77
2023/04/10 01:45:17;;;;;;;;;;;4.20;1.00;;;;;;5076322;28;19911;-72
2023/04/10 01:47:42;;;;;;;;;;;4.10;1.00;;;;;;5075974;28;20303;-72
2023/04/10 01:50:09;;;;;;;;;;;4.20;1.00;;;;;;5092404;28;19912;-71
2023/04/10 01:52:36;;;;;;;;;;;4.10;1.00;;;;;;5096000;28;19911;-72
2023/04/10 01:55:03;;;;;;;;;;;4.10;1.00;;;;;;5079392;28;20395;-72
2023/04/10 01:57:30;;;;;;;;;;;4.10;1.00;;;;;;5094328;28;20302;-72
2023/04/10 01:59:56;;;;;;;;;;;4.10;1.00;;;;;;5095918;28;20314;-75
2023/04/10 02:02:22;;;;;;;;;;;4.00;1.00;;;;;;5095954;28;19954;-72
2023/04/10 02:04:54;;;;;;;;;;;4.00;1.00;;;;;;5088708;28;19950;-72
2023/04/10 02:07:31;;;;;;;;;;;4.00;1.00;;;;;;5075352;28;19936;-72
2023/04/10 02:10:00;;;;;;;;;;;4.00;1.00;;;;;;5075356;28;19908;-72
2023/04/10 02:12:28;;;;;;;;;;;4.00;1.00;;;;;;5075382;28;20413;-72
2023/04/10 02:14:55;;;;;;;;;;;3.90;1.00;;;;;;5075148;28;19912;-72
2023/04/10 02:17:25;;;;;;;;;;;3.90;1.00;;;;;;5075706;28;19943;-72
2023/04/10 02:19:52;;;;;;;;;;;3.90;1.00;;;;;;5083222;28;19911;-72
2023/04/10 02:22:17;;;;;;;;;;;3.90;1.00;;;;;;5091973;28;19916;-72
2023/04/10 02:24:43;;;;;;;;;;;3.90;1.00;;;;;;5075223;28;19912;-72
2023/04/10 02:27:09;;;;;;;;;;;3.90;1.00;;;;;;5074846;28;19909;-72
2023/04/10 02:29:36;;;;;;;;;;;3.90;1.00;;;;;;5075029;28;19914;-72
2023/04/10 02:32:30;;;;;;;;;;;3.80;1.00;;;;;;5076146;28;19918;-77
2023/04/10 02:35:01;;;;;;;;;;;3.80;1.00;;;;;;5075217;28;19911;-77
2023/04/10 02:37:49;;;;;;;;;;;3.80;1.00;;;;;;5075427;28;20340;-77
2023/04/10 02:40:18;;;;;;;;;;;3.70;1.00;;;;;;5075039;28;19904;-76
2023/04/10 02:42:43;;;;;;;;;;;3.70;1.00;;;;;;5075074;28;19920;-77
2023/04/10 02:45:18;;;;;;;;;;;3.70;1.00;;;;;;5075108;28;19905;-77
2023/04/10 02:47:48;;;;;;;;;;;3.70;1.00;;;;;;5075026;28;19916;-72
2023/04/10 02:50:13;;;;;;;;;;;3.70;1.00;;;;;;5074468;28;19952;-72
2023/04/10 02:52:39;;;;;;;;;;;3.70;1.00;;;;;;5074940;28;20001;-72
2023/04/10 02:55:05;;;;;;;;;;;3.70;1.00;;;;;;5082032;28;19950;-72
2023/04/10 02:57:30;;;;;;;;;;;3.70;1.00;;;;;;5074340;28;20003;-72
2023/04/10 02:59:56;;;;;;;;;;;3.70;1.00;;;;;;5074541;28;19954;-72
2023/04/10 03:02:30;;;;;;;;;;;3.60;1.00;;;;;;5075028;28;19911;-76
2023/04/10 03:05:00;;;;;;;;;;;3.60;1.00;;;;;;5074721;28;20378;-77
2023/04/10 03:07:26;;;;;;;;;;;3.60;1.00;;;;;;5074521;28;19904;-77
2023/04/10 03:09:52;;;;;;;;;;;3.70;1.00;;;;;;5055842;28;20000;-77
2023/04/10 03:12:17;;;;;;;;;;;3.70;1.00;;;;;;5073866;28;19927;-77
2023/04/10 03:14:43;;;;;;;;;;;3.70;1.00;;;;;;5075598;28;19938;-77
2023/04/10 03:17:18;;;;;;;;;;;3.60;1.00;;;;;;5074591;28;19909;-77
2023/04/10 03:19:48;;;;;;;;;;;3.70;1.00;;;;;;5074404;28;19908;-77
2023/04/10 03:22:13;;;;;;;;;;;3.70;1.00;;;;;;5074414;28;19908;-77
2023/04/10 03:24:39;;;;;;;;;;;3.70;1.00;;;;;;5056964;28;20321;-77
2023/04/10 03:27:05;;;;;;;;;;;3.70;1.00;;;;;;5085744;28;20418;-77
2023/04/10 03:29:48;;;;;;;;;;;3.70;1.00;;;;;;5094565;28;20038;-77
2023/04/10 03:32:13;;;;;;;;;;;3.70;1.00;;;;;;5094637;28;19908;-77
2023/04/10 03:34:42;;;;;;;;;;;3.70;1.00;;;;;;5093816;28;20370;-77
2023/04/10 03:37:26;;;;;;;;;;;3.80;1.00;;;;;;5094571;28;19904;-77
2023/04/10 03:39:52;;;;;;;;;;;3.80;1.00;;;;;;5093994;28;19904;-77
2023/04/10 03:42:17;;;;;;;;;;;3.70;1.00;;;;;;5091428;28;19987;-77
2023/04/10 03:44:43;;;;;;;;;;;3.80;1.00;;;;;;5078230;28;19913;-77
2023/04/10 03:47:09;;;;;;;;;;;3.80;1.00;;;;;;5073646;28;20420;-77
2023/04/10 03:49:34;;;;;;;;;;;3.80;1.00;;;;;;5073440;28;19908;-77
2023/04/10 03:52:00;;;;;;;;;;;3.80;1.00;;;;;;5073453;28;19913;-77
2023/04/10 03:54:26;;;;;;;;;;;3.80;1.00;;;;;;5073710;28;19904;-77
2023/04/10 03:56:51;;;;;;;;;;;3.90;1.00;;;;;;5073377;28;20005;-77
2023/04/10 03:59:17;;;;;;;;;;;3.90;1.00;;;;;;5073435;28;19912;-77
2023/04/10 04:01:42;;;;;;;;;;;3.90;1.00;;;;;;5073693;28;19909;-77
2023/04/10 04:04:25;;;;;;;;;;;3.90;1.00;;;;;;5073655;28;19904;-77
2023/04/10 04:06:51;;;;;;;;;;;4.00;1.00;;;;;;5073836;28;19904;-77
2023/04/10 04:09:16;;;;;;;;;;;4.00;1.00;;;;;;5074144;28;19908;-77
2023/04/10 04:11:55;;;;;;;;;;;4.10;1.00;;;;;;5073932;28;19974;-77
2023/04/10 04:14:29;;;;;;;;;;;4.10;1.00;;;;;;5072725;28;19919;-77
2023/04/10 04:16:54;;;;;;;;;;;4.20;1.00;;;;;;5082801;28;20022;-77
2023/04/10 04:19:20;;;;;;;;;;;4.20;1.00;;;;;;5073783;28;20397;-77
2023/04/10 04:21:48;;;;;;;;;;;4.20;1.00;;;;;;5077840;28;19987;-77
2023/04/10 04:24:18;;;;;;;;;;;4.30;1.00;;;;;;5078223;28;19934;-77
2023/04/10 04:26:55;;;;;;;;;;;4.30;1.00;;;;;;5077545;28;19913;-77
2023/04/10 04:29:30;;;;;;;;;;;4.30;1.00;;;;;;5077829;28;19940;-77
2023/04/10 04:32:18;;;;;;;;;;;4.30;1.00;;;;;;5078510;28;19904;-77
2023/04/10 04:37:48;;;;;;;;;;;4.30;1.00;;;;;;5077170;28;19916;-77
2023/04/10 04:40:18;;;;;;;;;;;4.30;1.00;;;;;;5077333;28;19939;-77
2023/04/10 04:42:54;;;;;;;;;;;4.30;1.00;;;;;;5081079;28;19937;-83
2023/04/10 04:45:54;;;;;;;;;;;4.30;1.00;;;;;;5077468;28;19904;-85
2023/04/10 04:51:22;;;;;;;;;;;4.30;1.00;;;;;;5098142;28;19915;-84
2023/04/10 04:59:54;;;;;;;;;;;4.30;1.00;;;;;;5077337;28;19915;-84
2023/04/10 05:05:22;;;;;;;;;;;4.30;1.00;;;;;;5077367;28;19962;-84
2023/04/10 05:07:54;;;;;;;;;;;4.30;1.00;;;;;;5059380;28;19912;-84
2023/04/10 05:10:30;;;;;;;;;;;4.30;1.00;;;;;;5077302;28;19916;-84
2023/04/10 05:22:24;;;;;;;;;;;4.40;1.00;;;;;;5076994;28;19911;-84
2023/04/10 05:24:49;;;;;;;;;;;4.50;1.00;;;;;;5075888;28;19912;-84
2023/04/10 05:27:18;;;;;;;;;;;4.50;1.00;;;;;;5059408;28;20249;-84
2023/04/10 05:29:48;;;;;;;;;;;4.60;1.00;;;;;;5077144;28;19912;-84
2023/04/10 05:38:54;;;;;;;;;;;4.70;1.00;;;;;;5096651;28;19957;-84
2023/04/10 05:44:23;;;;;;;;;;;4.80;1.00;;;;;;5096683;28;19911;-84
2023/04/10 05:47:24;;;;;;;;;;;4.90;1.00;;;;;;5076560;28;19908;-84
2023/04/10 05:49:49;;;;;;;;;;;5.00;1.00;;;;;;5076810;28;19912;-84
2023/04/10 05:55:18;;;;;;;;;;;5.10;1.00;;;;;;5076375;28;19953;-84
2023/04/10 05:57:50;;;;;;;;;;;5.10;1.00;;;;;;5072433;28;20003;-84
2023/04/10 06:03:36;;;;;;;;;;;5.30;1.00;;;;;;5078863;28;19915;-84
2023/04/10 06:09:04;;;;;;;;;;;5.40;1.00;;;;;;5075691;28;19918;-84
2023/04/10 06:11:30;;;;;;;;;;;5.60;1.00;;;;;;5084653;28;19916;-84
2023/04/10 06:14:29;;;;;;;;;;;5.60;1.00;;;;;;5091527;28;19908;-85
2023/04/10 06:16:55;;;;;;;;;;;5.80;1.00;;;;;;5095649;28;19920;-85
2023/04/10 06:19:36;;;;;;;;;;;5.90;1.00;;;;;;5087500;28;20045;-85
2023/04/10 06:22:24;;;;;;;;;;;6.00;1.00;;;;;;5057120;28;19995;-85
2023/04/10 06:31:18;;;;;;;;;;;6.60;1.00;;;;;;5075562;28;19934;-85
2023/04/10 06:39:50;;;;;;;;;;;7.10;1.00;;;;;;5082550;28;19914;-85
2023/04/10 06:45:49;;;;;;;;;;;7.40;1.00;;;;;;5075148;28;20382;-85
2023/04/10 06:54:42;;;;;;;;;;;7.80;1.00;;;;;;5076985;28;19979;-85
2023/04/10 07:00:18;;;;;;;;;;;8.00;1.00;;;;;;5075943;28;19912;-85
2023/04/10 07:03:00;;;;;;;;;;;8.10;1.00;;;;;;5077056;28;19912;-85
2023/04/10 07:05:30;;;;;;;;;;;8.20;1.00;;;;;;5077040;28;19904;-84
2023/04/10 07:14:02;;;;;;;;;;;8.70;1.00;;;;;;5075370;28;20512;-84
2023/04/10 07:17:00;;;;;;;;;;;8.90;1.00;;;;;;5077675;28;20003;-85
2023/04/10 07:19:26;;;;;;;;;;;9.00;1.00;;;;;;5068873;28;19915;-84
2023/04/10 07:22:00;;;;;;;;;;;9.10;1.00;;;;;;5089319;28;19908;-84
2023/04/10 07:24:26;;;;;;;;;;;9.20;1.00;;;;;;5059584;28;19909;-84
2023/04/10 07:30:24;;;;;;;;;;;9.40;1.00;;;;;;5092879;28;19921;-85
2023/04/10 07:33:15;;;;;;;;;;;9.60;1.00;;;;;;5065595;28;20253;-85
2023/04/10 07:36:06;;;;;;;;;;;9.70;1.00;;;;;;5073644;28;19973;-85
2023/04/10 07:38:37;;;;;;;;;;;9.90;1.00;;;;;;5076405;28;19908;-85
2023/04/10 07:41:03;;;;;;;;;;;10.00;1.00;;;;;;5081786;28;19909;-85
2023/04/10 07:43:36;;;;;;;;;;;10.00;1.00;;;;;;5056450;28;19991;-85
2023/04/10 07:52:24;;;;;;;;;;;10.60;1.00;;;;;;5074477;28;20378;-86
2023/04/10 07:55:03;;;;;;;;;;;10.80;1.00;;;;;;5058421;28;19959;-86
2023/04/10 08:04:06;;;;;;;;;;;11.20;1.00;;;;;;5090356;28;19911;-86
2023/04/10 08:06:36;;;;;;;;;;;11.40;1.00;;;;;;5063179;28;19908;-86
2023/04/10 08:09:01;;;;;;;;;;;11.50;1.00;;;;;;5092659;28;19916;-86
2023/04/10 08:12:00;;;;;;;;;;;11.60;1.00;;;;;;5082571;28;20074;-86
2023/04/10 08:14:28;;;;;;;;;;;11.70;1.00;;;;;;5063012;28;19930;-86
2023/04/10 08:16:54;;;;;;;;;;;11.80;1.00;;;;;;5062592;28;20298;-83
2023/04/10 08:19:36;;;;;;;;;;;11.90;1.00;;;;;;5064705;28;19915;-86
2023/04/10 08:22:24;;;;;;;;;;;12.00;1.00;;;;;;5083772;28;19992;-83
2023/04/10 08:24:49;;;;;;;;;;;12.20;1.00;;;;;;5066223;28;19979;-84
2023/04/10 08:27:42;;;;;;;;;;;12.40;1.00;;;;;;5097438;28;20307;-83
2023/04/10 08:33:10;;;;;;;;;;;12.60;1.00;;;;;;5080214;28;20029;-84
2023/04/10 08:35:45;;;;;;;;;;;12.70;1.00;;;;;;5062558;28;20358;-84
2023/04/10 08:41:18;;;;;;;;;;;12.70;1.00;;;;;;5085189;28;19919;-84
2023/04/10 08:43:55;;;;;;;;;;;12.90;1.00;;;;;;5080080;28;19914;-84
2023/04/10 08:49:56;;;;;;;;;;;13.10;1.00;;;;;;5090317;28;19923;-84
2023/04/10 08:52:24;;;;;;;;;;;13.30;1.00;;;;;;5017999;28;20412;-82
2023/04/10 08:55:18;;;;;;;;;;;13.30;1.00;;;;;;5015079;28;19924;-82
2023/04/10 08:57:48;;;;;;;;;;;13.40;1.00;;;;;;5018248;28;19906;-83
2023/04/10 09:00:13;;;;;;;;;;;13.60;1.00;;;;;;4997334;28;20194;-83
2023/04/10 09:03:07;;;;;;;;;;;13.60;1.00;;;;;;5001690;28;20021;-83
2023/04/10 09:05:48;;;;;;;;;;;13.70;1.00;;;;;;5017054;28;20108;-82
2023/04/10 09:08:30;;;;;;;;;;;13.80;1.00;;;;;;5014624;28;19910;-84
2023/04/10 09:11:00;;;;;;;;;;;14.00;1.00;;;;;;5015029;28;19932;-84
2023/04/10 09:13:42;;;;;;;;;;;14.00;1.00;;;;;;4994536;28;19906;-84
2023/04/10 09:16:36;;;;;;;;;;;14.20;1.00;;;;;;4995367;28;19913;-85
2023/04/10 09:19:12;;;;;;;;;;;14.50;1.00;;;;;;5008586;28;19920;-84
2023/04/10 09:25:00;;;;;;;;;;;15.00;1.00;;;;;;5014518;28;20085;-83
2023/04/10 09:27:37;;;;;;;;;;;15.20;1.00;;;;;;5014982;28;19909;-83
2023/04/10 09:30:07;;;;;;;;;;;15.40;1.00;;;;;;5058313;28;19915;-83
2023/04/10 09:32:54;;;;;;;;;;;15.60;1.00;;;;;;5058325;28;19998;-83
2023/04/10 09:35:50;;;;;;;;;;;15.70;1.00;;;;;;5060191;28;19954;-83
2023/04/10 09:38:48;;;;;;;;;;;16.00;1.00;;;;;;5018092;28;20000;-83
2023/04/10 09:41:30;;;;;;;;;;;16.20;1.00;;;;;;4997900;28;19910;-83
2023/04/10 09:44:06;;;;;;;;;;;16.40;1.00;;;;;;5020283;28;19913;-82
2023/04/10 09:46:36;;;;;;;;;;;16.60;1.00;;;;;;5017496;28;20422;-82
2023/04/10 09:49:18;;;;;;;;;;;16.60;1.00;;;;;;5033971;28;19979;-83
2023/04/10 09:51:54;;;;;;;;;;;16.60;1.00;;;;;;5016108;28;19909;-84
2023/04/10 09:54:51;;;;;;;;;;;16.70;1.00;;;;;;5014133;28;19905;-84
2023/04/10 10:00:19;;;;;;;;;;;16.70;1.00;;;;;;4955483;28;19961;-83
2023/04/10 10:02:55;;;;;;;;;;;16.80;1.00;;;;;;4939725;28;20330;-84
2023/04/10 10:05:22;;;;;;;;;;;16.70;1.00;;;;;;4961934;28;19917;-83
2023/04/10 10:08:24;;;;;;;;;;;16.80;1.00;;;;;;4975038;28;19993;-83
2023/04/10 10:11:12;;;;;;;;;;;16.80;1.00;;;;;;4974729;28;19918;-83
2023/04/10 10:13:57;;;;;;;;;;;16.90;1.00;;;;;;4976525;28;19906;-83
2023/04/10 10:16:54;;;;;;;;;;;17.00;1.00;;;;;;5003220;28;19936;-84
2023/04/10 10:19:42;;;;;;;;;;;17.00;1.00;;;;;;5013226;28;19920;-83
2023/04/10 10:22:18;;;;;;;;;;;16.90;1.00;;;;;;5025466;28;19913;-84
2023/04/10 10:25:19;;;;;;;;;;;16.90;1.00;;;;;;5013430;28;19916;-82
2023/04/10 10:27:48;;;;;;;;;;;16.80;1.00;;;;;;5013494;28;20013;-83
2023/04/10 10:30:16;;;;;;;;;;;16.80;1.00;;;;;;5020766;28;19913;-83
2023/04/10 10:32:44;;;;;;;;;;;16.70;1.00;;;;;;5038752;28;19912;-82
2023/04/10 10:35:18;;;;;;;;;;;16.80;1.00;;;;;;5086494;28;20422;-82
2023/04/10 10:37:54;;;;;;;;;;;17.00;1.00;;;;;;5075485;28;19912;-81
2023/04/10 10:40:41;;;;;;;;;;;17.00;1.00;;;;;;5057102;28;19904;-81
2023/04/10 10:43:24;;;;;;;;;;;17.20;1.00;;;;;;5074732;28;19911;-81
2023/04/10 10:46:00;;;;;;;;;;;17.30;1.00;;;;;;5074703;28;20003;-81
2023/04/10 10:48:26;;;;;;;;;;;17.40;1.00;;;;;;5079151;28;20256;-81
2023/04/10 10:51:18;;;;;;;;;;;17.50;1.00;;;;;;5056714;28;19915;-82
2023/04/10 10:53:43;;;;;;;;;;;17.50;1.00;;;;;;5074991;28;19993;-80
2023/04/10 10:56:30;;;;;;;;;;;17.70;1.00;;;;;;5074461;28;19908;-82
2023/04/10 10:59:06;;;;;;;;;;;17.70;1.00;;;;;;5075000;28;19908;-81
2023/04/10 11:04:48;;;;;;;;;;;18.00;1.00;;;;;;5079758;28;20381;-81
2023/04/10 11:07:14;;;;;;;;;;;18.20;1.00;;;;;;5082079;28;19904;-81
2023/04/10 11:10:00;;;;;;;;;;;18.50;1.00;;;;;;5089532;28;20279;-83
2023/04/10 11:12:50;;;;;;;;;;;18.70;1.00;;;;;;5091761;28;19961;-83
2023/04/10 11:15:21;;;;;;;;;;;18.80;1.00;;;;;;5072988;28;20022;-85
2023/04/10 11:18:00;;;;;;;;;;;18.80;1.00;;;;;;5078805;28;19912;-82
2023/04/10 11:23:28;;;;;;;;;;;19.10;1.00;;;;;;5074794;28;19915;-82
2023/04/10 11:26:00;;;;;;;;;;;19.30;1.00;;;;;;5075578;28;20334;-82
2023/04/10 11:29:00;;;;;;;;;;;19.60;1.00;;;;;;5056161;28;19911;-82
2023/04/10 11:31:26;;;;;;;;;;;19.60;1.00;;;;;;5073419;28;19915;-82
2023/04/10 11:34:14;;;;;;;;;;;19.80;1.00;;;;;;5055993;28;19904;-82
2023/04/10 11:39:43;;;;;;;;;;;19.60;1.00;;;;;;5092218;28;20302;-80
2023/04/10 11:42:10;;;;;;;;;;;19.60;1.00;;;;;;5083001;28;19904;-81
2023/04/10 11:44:38;;;;;;;;;;;19.60;1.00;;;;;;5059198;28;19915;-80
2023/04/10 11:47:18;;;;;;;;;;;19.80;1.00;;;;;;5093601;28;20271;-81
2023/04/10 11:49:52;;;;;;;;;;;19.90;1.00;;;;;;5072350;28;19959;-80
2023/04/10 11:52:42;;;;;;;;;;;20.20;1.00;;;;;;5083505;28;19904;-80
2023/04/10 11:55:45;;;;;;;;;;;20.30;1.00;;;;;;5076014;28;19914;-80
2023/04/10 11:58:27;;;;;;;;;;;20.50;1.00;;;;;;5031660;28;19959;-80
2023/04/10 12:01:03;;;;;;;;;;;20.50;1.00;;;;;;5029966;28;19905;-80
2023/04/10 12:03:48;;;;;;;;;;;20.60;1.00;;;;;;5010523;28;19910;-80
2023/04/10 12:06:30;;;;;;;;;;;20.80;1.00;;;;;;5011820;28;19906;-80
2023/04/10 12:09:12;;;;;;;;;;;21.30;1.00;;;;;;5030764;28;19905;-84
2023/04/10 12:11:47;;;;;;;;;;;21.40;1.00;;;;;;5008100;28;19913;-86
2023/04/10 12:14:29;;;;;;;;;;;21.40;1.00;;;;;;5023284;28;20008;-86
2023/04/10 12:16:55;;;;;;;;;;;21.80;1.00;;;;;;5016798;28;20364;-85
2023/04/10 12:19:22;;;;;;;;;;;21.80;1.00;;;;;;5028212;28;20395;-85
2023/04/10 12:24:52;;;;;;;;;;;21.70;1.00;;;;;;5012078;28;20387;-83
2023/04/10 12:30:20;;;;;;;;;;;21.70;1.00;;;;;;5025591;28;22775;-82
2023/04/10 12:32:52;;;;;;;;;;;21.70;1.00;;;;;;5062909;28;19905;-82
2023/04/10 12:35:18;;;;;;;;;;;21.90;1.00;;;;;;5073290;28;19908;-84
2023/04/10 12:41:00;;;;;;;;;;;22.00;1.00;;;;;;5073908;28;19911;-84
2023/04/10 12:43:54;;;;;;;;;;;21.60;1.00;;;;;;5077123;28;19908;-84
2023/04/10 12:46:31;;;;;;;;;;;21.30;1.00;;;;;;5062756;28;19904;-84
2023/04/10 12:49:07;;;;;;;;;;;21.30;1.00;;;;;;5079255;28;19950;-84
2023/04/10 12:54:36;;;;;;;;;;;21.60;1.00;;;;;;5097789;28;19915;-87
2023/04/10 13:00:05;;;;;;;;;;;22.20;1.00;;;;;;5097490;28;20317;-86
2023/04/10 13:02:36;;;;;;;;;;;22.30;1.00;;;;;;5097179;28;19939;-86
2023/04/10 13:05:12;;;;;;;;;;;22.30;1.00;;;;;;5092240;28;20542;-84
2023/04/10 13:08:12;;;;;;;;;;;22.40;1.00;;;;;;5076810;28;19905;-85
2023/04/10 13:10:48;;;;;;;;;;;22.10;1.00;;;;;;5072367;28;19997;-85
2023/04/10 13:16:18;;;;;;;;;;;21.60;1.00;;;;;;5091361;28;19919;-85
2023/04/10 13:18:54;;;;;;;;;;;21.40;1.00;;;;;;5069494;28;19912;-85
2023/04/10 13:21:36;;;;;;;;;;;21.20;1.00;;;;;;5096209;28;20003;-84
2023/04/10 13:24:06;;;;;;;;;;;21.30;1.00;;;;;;5060352;28;19987;-83
2023/04/10 13:26:48;;;;;;;;;;;21.80;1.00;;;;;;5076561;28;19904;-84
2023/04/10 13:32:16;;;;;;;;;;;21.90;1.00;;;;;;5076230;28;19911;-85
2023/04/10 13:34:42;;;;;;;;;;;22.20;1.00;;;;;;5090447;28;20280;-84
2023/04/10 13:37:08;;;;;;;;;;;22.30;1.00;;;;;;5080266;28;19953;-84
2023/04/10 13:39:42;;;;;;;;;;;22.00;1.00;;;;;;5096806;28;19904;-85
2023/04/10 13:42:12;;;;;;;;;;;22.40;1.00;;;;;;5078415;28;19904;-85
2023/04/10 13:48:06;;;;;;;;;;;22.20;1.00;;;;;;5096027;28;20033;-85
2023/04/10 13:50:36;;;;;;;;;;;21.80;1.00;;;;;;5096174;28;19915;-85
2023/04/10 13:56:30;;;;;;;;;;;21.70;1.00;;;;;;5076112;28;19957;-85
2023/04/10 13:59:18;;;;;;;;;;;21.80;1.00;;;;;;5076143;28;19912;-86
2023/04/10 14:01:43;;;;;;;;;;;21.70;1.00;;;;;;5076209;28;19992;-86
2023/04/10 14:04:25;;;;;;;;;;;21.50;1.00;;;;;;5066572;28;19944;-85
2023/04/10 14:07:06;;;;;;;;;;;21.80;1.00;;;;;;5063396;28;19904;-85
2023/04/10 14:09:31;;;;;;;;;;;21.80;1.00;;;;;;5082091;28;20313;-84
2023/04/10 14:12:00;;;;;;;;;;;21.70;1.00;;;;;;5095833;28;19904;-81
2023/04/10 14:14:26;;;;;;;;;;;21.80;1.00;;;;;;5073868;28;19908;-81
2023/04/10 14:17:00;;;;;;;;;;;21.90;1.00;;;;;;5076894;28;19988;-81
2023/04/10 14:19:42;;;;;;;;;;;22.00;1.00;;;;;;5062053;28;19952;-82
2023/04/10 14:22:12;;;;;;;;;;;22.00;1.00;;;;;;5074971;28;19915;-81
2023/04/10 14:33:46;;;;;;;;;;;21.80;1.00;;;;;;5075477;28;19915;-82
2023/04/10 14:36:48;;;;;;;;;;;22.00;1.00;;;;;;5076884;28;19904;-82
2023/04/10 14:39:24;;;;;;;;;;;22.20;1.00;;;;;;5084710;28;19944;-82
2023/04/10 14:42:01;;;;;;;;;;;22.30;1.00;;;;;;5075033;28;19947;-82
2023/04/10 14:44:27;;;;;;;;;;;22.10;1.00;;;;;;5056855;28;19912;-83
2023/04/10 14:47:06;;;;;;;;;;;22.10;1.00;;;;;;5056559;28;19939;-82
2023/04/10 14:52:49;;;;;;;;;;;21.80;1.00;;;;;;5074398;28;19953;-83
2023/04/10 14:58:42;;;;;;;;;;;21.90;1.00;;;;;;5075063;28;20000;-87
2023/04/10 15:04:11;;;;;;;;;;;22.20;1.00;;;;;;5074350;28;19962;-87
2023/04/10 15:06:36;;;;;;;;;;;21.90;1.00;;;;;;5087490;28;20340;-76
2023/04/10 15:09:02;;;;;;;;;;;22.00;1.00;;;;;;5094251;28;19904;-74
2023/04/10 15:11:28;;;;;;;;;;;22.10;1.00;;;;;;5073310;28;19908;-74
2023/04/10 15:13:53;;;;;;;;;;;22.10;1.00;;;;;;5074049;28;19912;-74
2023/04/10 15:16:20;;;;;;;;;;;21.90;1.00;;;;;;5073649;28;19912;-74
2023/04/10 15:18:46;;;;;;;;;;;21.80;1.00;;;;;;5073802;28;19912;-74
2023/04/10 15:21:12;;;;;;;;;;;21.60;1.00;;;;;;5059751;28;19912;-73
2023/04/10 15:23:37;;;;;;;;;;;21.30;1.00;;;;;;5087510;28;19908;-73
2023/04/10 15:26:09;;;;;;;;;;;21.50;1.00;;;;;;5080257;28;19949;-80
2023/04/10 15:28:42;;;;;;;;;;;21.60;1.00;;;;;;5074033;28;19912;-79
2023/04/10 15:31:08;;;;;;;;;;;21.40;1.00;;;;;;5073834;28;20007;-80
2023/04/10 15:33:42;;;;;;;;;;;21.60;1.00;;;;;;5056014;28;19930;-80
2023/04/10 15:36:08;;;;;;;;;;;22.00;1.00;;;;;;5084652;28;19909;-80
2023/04/10 15:38:42;;;;;;;;;;;22.00;1.00;;;;;;5073504;28;19949;-80
2023/04/10 15:41:24;;;;;;;;;;;22.30;1.00;;;;;;5074193;28;20406;-80
2023/04/10 15:43:50;;;;;;;;;;;22.60;1.00;;;;;;5073777;28;19915;-80
2023/04/10 15:49:48;;;;;;;;;;;21.50;1.00;;;;;;5080897;28;19953;-80
2023/04/10 15:52:14;;;;;;;;;;;21.60;1.00;;;;;;5073715;28;19911;-80
2023/04/10 15:54:39;;;;;;;;;;;21.90;1.00;;;;;;5073626;28;19904;-80
2023/04/10 15:57:05;;;;;;;;;;;22.90;1.00;;;;;;5076225;28;19908;-74
2023/04/10 15:59:31;;;;;;;;;;;23.60;1.00;;;;;;5073503;28;19912;-74
2023/04/10 16:01:57;;;;;;;;;;;24.30;1.00;;;;;;5073424;28;19947;-74
2023/04/10 16:04:22;;;;;;;;;;;24.90;1.00;;;;;;5081976;28;19955;-74
2023/04/10 16:06:48;;;;;;;;;;;25.30;1.00;;;;;;5098814;28;19974;-74
2023/04/10 16:09:14;;;;;;;;;;;26.30;1.00;;;;;;5075220;28;19908;-74
2023/04/10 16:11:40;;;;;;;;;;;26.40;1.00;;;;;;5088599;28;20006;-74
2023/04/10 16:14:05;;;;;;;;;;;26.20;1.00;;;;;;5073757;28;19912;-74
2023/04/10 16:16:31;;;;;;;;;;;25.60;1.00;;;;;;5064185;28;20274;-74
2023/04/10 16:18:59;;;;;;;;;;;25.20;1.00;;;;;;5097596;28;19950;-74
2023/04/10 16:21:25;;;;;;;;;;;24.20;1.00;;;;;;5066684;28;20385;-74
2023/04/10 16:23:51;;;;;;;;;;;23.70;1.00;;;;;;5076618;28;20379;-74
2023/04/10 16:26:17;;;;;;;;;;;22.90;1.00;;;;;;5077597;28;19908;-80
2023/04/10 16:28:43;;;;;;;;;;;22.30;1.00;;;;;;5091298;28;19915;-80
2023/04/10 16:31:42;;;;;;;;;;;21.60;1.00;;;;;;5079251;28;20367;-81
2023/04/10 16:37:42;;;;;;;;;;;21.10;1.00;;;;;;5077948;28;19911;-92
2023/04/10 16:43:18;;;;;;;;;;;20.20;1.00;;;;;;5078807;28;20014;-88
2023/04/10 16:49:12;;;;;;;;;;;19.80;1.00;;;;;;5077499;28;20416;-90
2023/04/10 16:51:54;;;;;;;;;;;19.70;1.00;;;;;;5077737;28;19912;-91
2023/04/10 16:54:54;;;;;;;;;;;19.60;1.00;;;;;;5079868;28;19904;-91
2023/04/10 17:03:26;;;;;;;;;;;19.10;1.00;;;;;;5077438;28;19919;-93
2023/04/10 17:12:12;;;;;;;;;;;18.80;1.00;;;;;;5077644;28;20441;-94
2023/04/10 17:14:38;;;;;;;;;;;18.70;1.00;;;;;;5059217;28;19904;-94
2023/04/10 17:17:06;;;;;;;;;;;18.60;1.00;;;;;;5076173;28;19916;-95
2023/04/10 17:23:12;;;;;;;;;;;18.40;1.00;;;;;;5087317;28;19992;-90
2023/04/10 17:29:00;;;;;;;;;;;18.20;1.00;;;;;;5076043;28;19915;-92
2023/04/10 17:34:42;;;;;;;;;;;18.00;1.00;;;;;;5076645;28;19927;-90
2023/04/10 17:37:24;;;;;;;;;;;17.80;1.00;;;;;;5058937;28;19904;-90
2023/04/10 17:43:12;;;;;;;;;;;17.60;1.00;;;;;;5076981;28;19958;-89
2023/04/10 17:48:42;;;;;;;;;;;17.20;1.00;;;;;;5092178;28;19942;-90
2023/04/10 17:51:42;;;;;;;;;;;17.10;1.00;;;;;;5058764;28;20418;-88
2023/04/10 17:54:24;;;;;;;;;;;17.00;1.00;;;;;;5058818;28;19904;-89
2023/04/10 18:03:12;;;;;;;;;;;16.70;1.00;;;;;;5076181;28;20366;-90
2023/04/10 18:06:12;;;;;;;;;;;16.70;1.00;;;;;;5076149;28;19987;-90
2023/04/10 18:08:55;;;;;;;;;;;16.60;1.00;;;;;;5058341;28;19912;-91
2023/04/10 18:11:46;;;;;;;;;;;16.60;1.00;;;;;;5077588;28;20039;-90
2023/04/10 18:14:12;;;;;;;;;;;16.50;1.00;;;;;;5075484;28;19909;-92
2023/04/10 18:19:56;;;;;;;;;;;16.40;1.00;;;;;;5095393;28;19999;-93
2023/04/10 18:22:24;;;;;;;;;;;16.30;1.00;;;;;;5075278;28;19908;-93
2023/04/10 18:25:12;;;;;;;;;;;16.30;1.00;;;;;;5069419;28;19912;-93
2023/04/10 18:27:43;;;;;;;;;;;16.30;1.00;;;;;;5078342;28;19915;-86
2023/04/10 18:30:42;;;;;;;;;;;16.20;1.00;;;;;;5095706;28;20355;-87
2023/04/10 18:33:18;;;;;;;;;;;16.20;1.00;;;;;;5095689;28;19998;-92
2023/04/10 18:36:02;;;;;;;;;;;16.20;1.00;;;;;;5078048;28;20041;-89
2023/04/10 18:41:48;;;;;;;;;;;16.00;1.00;;;;;;5075658;28;19914;-88
2023/04/10 18:53:23;;;;;;;;;;;15.90;1.00;;;;;;5075633;28;20066;-91
2023/04/10 18:59:06;;;;;;;;;;;16.00;1.00;;;;;;5075518;28;19915;-89
2023/04/10 19:02:00;;;;;;;;;;;15.90;1.00;;;;;;5057442;28;19958;-88
2023/04/10 19:04:26;;;;;;;;;;;15.90;1.00;;;;;;5074003;28;19954;-88
2023/04/10 19:07:12;;;;;;;;;;;15.80;1.00;;;;;;5061697;28;19939;-89
2023/04/10 19:09:42;;;;;;;;;;;15.80;1.00;;;;;;5073692;28;19953;-89
2023/04/10 19:12:18;;;;;;;;;;;15.80;1.00;;;;;;5068140;28;19953;-89